sensor_id;sensor_type;location;lat;lon;timestamp;P1;durP1;ratioP1;P2;durP2;ratioP2
8791;SDS011;4432;50.890;4.744;2022-10-16T00:01:16;3.87;;;1.13;;
8791;SDS011;4432;50.890;4.744;2022-10-16T00:03:44;1.33;;;1.20;;
8791;SDS011;4432;50.890;4.744;2022-10-16T00:06:10;3.03;;;1.70;;
8791;SDS011;4432;50.890;4.744;2022-10-16T00:08:37;6.93;;;1.40;;
8791;SDS011;4432;50.890;4.744;2022-10-16T00:11:08;1.40;;;1.30;;
8791;SDS011;4432;50.890;4.744;2022-10-16T00:13:36;1.50;;;1.23;;
8791;SDS011;4432;50.890;4.744;2022-10-16T00:16:03;1.33;;;1.23;;
8791;SDS011;4432;50.890;4.744;2022-10-16T00:18:30;2.70;;;1.40;;
8791;SDS011;4432;50.890;4.744;2022-10-16T00:21:01;5.50;;;1.50;;
8791;SDS011;4432;50.890;4.744;2022-10-16T00:23:28;1.20;;;1.10;;
8791;SDS011;4432;50.890;4.744;2022-10-16T00:25:57;1.53;;;1.00;;
8791;SDS011;4432;50.890;4.744;2022-10-16T00:28:25;1.00;;;1.00;;
8791;SDS011;4432;50.890;4.744;2022-10-16T00:30:51;1.30;;;1.20;;
8791;SDS011;4432;50.890;4.744;2022-10-16T00:33:18;1.23;;;1.10;;
8791;SDS011;4432;50.890;4.744;2022-10-16T00:35:44;1.00;;;1.00;;
8791;SDS011;4432;50.890;4.744;2022-10-16T00:38:10;1.83;;;1.20;;
8791;SDS011;4432;50.890;4.744;2022-10-16T00:40:36;5.27;;;1.20;;
8791;SDS011;4432;50.890;4.744;2022-10-16T00:43:02;1.47;;;1.10;;
8791;SDS011;4432;50.890;4.744;2022-10-16T00:45:27;0.90;;;0.90;;
8791;SDS011;4432;50.890;4.744;2022-10-16T00:47:54;1.13;;;1.07;;
8791;SDS011;4432;50.890;4.744;2022-10-16T00:50:31;1.00;;;0.90;;
8791;SDS011;4432;50.890;4.744;2022-10-16T00:52:59;1.20;;;1.10;;
8791;SDS011;4432;50.890;4.744;2022-10-16T00:55:27;1.20;;;1.10;;
8791;SDS011;4432;50.890;4.744;2022-10-16T00:57:55;2.83;;;1.10;;
8791;SDS011;4432;50.890;4.744;2022-10-16T01:00:23;0.97;;;0.93;;
8791;SDS011;4432;50.890;4.744;2022-10-16T01:02:54;1.80;;;0.90;;
8791;SDS011;4432;50.890;4.744;2022-10-16T01:05:22;1.07;;;1.00;;
8791;SDS011;4432;50.890;4.744;2022-10-16T01:10:27;1.77;;;1.07;;
8791;SDS011;4432;50.890;4.744;2022-10-16T01:13:05;1.00;;;1.00;;
8791;SDS011;4432;50.890;4.744;2022-10-16T01:18:14;0.80;;;0.80;;
8791;SDS011;4432;50.890;4.744;2022-10-16T01:29:37;3.73;;;0.90;;
8791;SDS011;4432;50.890;4.744;2022-10-16T01:32:13;0.83;;;0.80;;
8791;SDS011;4432;50.890;4.744;2022-10-16T01:34:50;0.90;;;0.80;;
8791;SDS011;4432;50.890;4.744;2022-10-16T01:37:23;2.23;;;0.90;;
8791;SDS011;4432;50.890;4.744;2022-10-16T01:40:11;0.83;;;0.80;;
8791;SDS011;4432;50.890;4.744;2022-10-16T01:42:43;3.50;;;1.00;;
8791;SDS011;4432;50.890;4.744;2022-10-16T01:45:12;1.00;;;1.00;;
8791;SDS011;4432;50.890;4.744;2022-10-16T01:47:40;0.73;;;0.73;;
8791;SDS011;4432;50.890;4.744;2022-10-16T01:50:08;1.00;;;0.90;;
8791;SDS011;4432;50.890;4.744;2022-10-16T01:52:36;0.90;;;0.90;;
8791;SDS011;4432;50.890;4.744;2022-10-16T01:55:05;1.10;;;0.90;;
8791;SDS011;4432;50.890;4.744;2022-10-16T01:57:33;1.00;;;1.00;;
8791;SDS011;4432;50.890;4.744;2022-10-16T02:00:05;1.37;;;0.97;;
8791;SDS011;4432;50.890;4.744;2022-10-16T02:02:35;0.90;;;0.90;;
8791;SDS011;4432;50.890;4.744;2022-10-16T02:05:12;1.70;;;0.80;;
8791;SDS011;4432;50.890;4.744;2022-10-16T02:07:43;1.87;;;0.90;;
8791;SDS011;4432;50.890;4.744;2022-10-16T02:10:09;1.90;;;1.20;;
8791;SDS011;4432;50.890;4.744;2022-10-16T02:12:36;0.70;;;0.70;;
8791;SDS011;4432;50.890;4.744;2022-10-16T02:15:05;1.97;;;1.20;;
8791;SDS011;4432;50.890;4.744;2022-10-16T02:17:32;1.03;;;0.90;;
8791;SDS011;4432;50.890;4.744;2022-10-16T02:19:57;2.20;;;1.37;;
8791;SDS011;4432;50.890;4.744;2022-10-16T02:22:30;1.20;;;1.07;;
8791;SDS011;4432;50.890;4.744;2022-10-16T02:28:28;1.23;;;1.17;;
8791;SDS011;4432;50.890;4.744;2022-10-16T02:30:46;0.90;;;0.90;;
8791;SDS011;4432;50.890;4.744;2022-10-16T02:33:20;1.33;;;1.00;;
8791;SDS011;4432;50.890;4.744;2022-10-16T02:35:48;1.93;;;0.73;;
8791;SDS011;4432;50.890;4.744;2022-10-16T02:38:16;1.23;;;1.03;;
8791;SDS011;4432;50.890;4.744;2022-10-16T02:40:43;1.30;;;1.20;;
8791;SDS011;4432;50.890;4.744;2022-10-16T02:43:09;1.17;;;1.10;;
8791;SDS011;4432;50.890;4.744;2022-10-16T02:45:35;1.40;;;1.30;;
8791;SDS011;4432;50.890;4.744;2022-10-16T02:48:01;2.03;;;1.00;;
8791;SDS011;4432;50.890;4.744;2022-10-16T02:50:27;1.27;;;1.17;;
8791;SDS011;4432;50.890;4.744;2022-10-16T02:52:53;2.93;;;0.97;;
8791;SDS011;4432;50.890;4.744;2022-10-16T02:55:18;3.70;;;1.33;;
8791;SDS011;4432;50.890;4.744;2022-10-16T02:57:44;0.93;;;0.93;;
8791;SDS011;4432;50.890;4.744;2022-10-16T03:00:11;1.27;;;1.03;;
8791;SDS011;4432;50.890;4.744;2022-10-16T03:02:39;1.17;;;1.10;;
8791;SDS011;4432;50.890;4.744;2022-10-16T03:05:05;1.10;;;1.10;;
8791;SDS011;4432;50.890;4.744;2022-10-16T03:07:31;0.90;;;0.90;;
8791;SDS011;4432;50.890;4.744;2022-10-16T03:09:57;2.10;;;1.00;;
8791;SDS011;4432;50.890;4.744;2022-10-16T03:12:25;3.43;;;1.37;;
8791;SDS011;4432;50.890;4.744;2022-10-16T03:14:52;1.07;;;1.00;;
8791;SDS011;4432;50.890;4.744;2022-10-16T03:17:18;1.43;;;1.00;;
8791;SDS011;4432;50.890;4.744;2022-10-16T03:19:43;1.23;;;1.13;;
8791;SDS011;4432;50.890;4.744;2022-10-16T03:22:09;2.20;;;1.37;;
8791;SDS011;4432;50.890;4.744;2022-10-16T03:24:35;0.87;;;0.87;;
8791;SDS011;4432;50.890;4.744;2022-10-16T03:27:00;1.33;;;1.10;;
8791;SDS011;4432;50.890;4.744;2022-10-16T03:29:27;1.00;;;1.00;;
8791;SDS011;4432;50.890;4.744;2022-10-16T03:31:54;1.30;;;1.20;;
8791;SDS011;4432;50.890;4.744;2022-10-16T03:34:20;1.00;;;1.00;;
8791;SDS011;4432;50.890;4.744;2022-10-16T03:36:46;1.87;;;1.00;;
8791;SDS011;4432;50.890;4.744;2022-10-16T03:39:12;1.13;;;1.13;;
8791;SDS011;4432;50.890;4.744;2022-10-16T03:41:38;1.20;;;1.10;;
8791;SDS011;4432;50.890;4.744;2022-10-16T03:44:03;1.60;;;1.40;;
8791;SDS011;4432;50.890;4.744;2022-10-16T03:46:29;1.20;;;0.97;;
8791;SDS011;4432;50.890;4.744;2022-10-16T03:48:55;1.53;;;1.20;;
8791;SDS011;4432;50.890;4.744;2022-10-16T03:51:20;1.37;;;1.27;;
8791;SDS011;4432;50.890;4.744;2022-10-16T03:53:46;1.53;;;1.10;;
8791;SDS011;4432;50.890;4.744;2022-10-16T03:56:12;1.27;;;1.17;;
8791;SDS011;4432;50.890;4.744;2022-10-16T03:58:38;2.87;;;1.03;;
8791;SDS011;4432;50.890;4.744;2022-10-16T04:01:03;1.80;;;1.20;;
8791;SDS011;4432;50.890;4.744;2022-10-16T04:03:29;1.87;;;1.10;;
8791;SDS011;4432;50.890;4.744;2022-10-16T04:05:55;1.77;;;1.20;;
8791;SDS011;4432;50.890;4.744;2022-10-16T04:08:21;1.17;;;1.07;;
8791;SDS011;4432;50.890;4.744;2022-10-16T04:10:47;1.43;;;1.00;;
8791;SDS011;4432;50.890;4.744;2022-10-16T04:13:13;5.33;;;1.50;;
8791;SDS011;4432;50.890;4.744;2022-10-16T04:15:38;1.63;;;1.20;;
8791;SDS011;4432;50.890;4.744;2022-10-16T04:18:04;1.13;;;1.03;;
8791;SDS011;4432;50.890;4.744;2022-10-16T04:20:31;1.50;;;1.40;;
8791;SDS011;4432;50.890;4.744;2022-10-16T04:22:56;2.23;;;1.40;;
8791;SDS011;4432;50.890;4.744;2022-10-16T04:25:22;1.70;;;1.00;;
8791;SDS011;4432;50.890;4.744;2022-10-16T04:27:48;2.73;;;1.20;;
8791;SDS011;4432;50.890;4.744;2022-10-16T04:30:13;1.50;;;1.40;;
8791;SDS011;4432;50.890;4.744;2022-10-16T04:32:39;2.77;;;1.50;;
8791;SDS011;4432;50.890;4.744;2022-10-16T04:35:05;2.43;;;1.40;;
8791;SDS011;4432;50.890;4.744;2022-10-16T04:37:31;3.80;;;1.80;;
8791;SDS011;4432;50.890;4.744;2022-10-16T04:39:57;4.33;;;1.73;;
8791;SDS011;4432;50.890;4.744;2022-10-16T04:42:23;5.80;;;1.73;;
8791;SDS011;4432;50.890;4.744;2022-10-16T04:44:49;3.33;;;1.60;;
8791;SDS011;4432;50.890;4.744;2022-10-16T04:47:14;3.57;;;1.70;;
8791;SDS011;4432;50.890;4.744;2022-10-16T04:49:40;2.87;;;1.80;;
8791;SDS011;4432;50.890;4.744;2022-10-16T04:52:06;2.83;;;1.40;;
8791;SDS011;4432;50.890;4.744;2022-10-16T04:54:34;2.07;;;1.50;;
8791;SDS011;4432;50.890;4.744;2022-10-16T04:56:59;2.20;;;1.37;;
8791;SDS011;4432;50.890;4.744;2022-10-16T04:59:25;1.30;;;1.20;;
8791;SDS011;4432;50.890;4.744;2022-10-16T05:01:51;2.83;;;1.67;;
8791;SDS011;4432;50.890;4.744;2022-10-16T05:04:16;1.60;;;1.50;;
8791;SDS011;4432;50.890;4.744;2022-10-16T05:06:42;3.27;;;1.60;;
8791;SDS011;4432;50.890;4.744;2022-10-16T05:09:08;1.30;;;1.20;;
8791;SDS011;4432;50.890;4.744;2022-10-16T05:11:34;1.77;;;1.43;;
8791;SDS011;4432;50.890;4.744;2022-10-16T05:14:00;2.00;;;1.77;;
8791;SDS011;4432;50.890;4.744;2022-10-16T05:16:26;3.13;;;1.90;;
8791;SDS011;4432;50.890;4.744;2022-10-16T05:18:52;1.70;;;1.53;;
8791;SDS011;4432;50.890;4.744;2022-10-16T05:21:18;1.50;;;1.40;;
8791;SDS011;4432;50.890;4.744;2022-10-16T05:23:44;1.70;;;1.60;;
8791;SDS011;4432;50.890;4.744;2022-10-16T05:26:10;2.97;;;1.60;;
8791;SDS011;4432;50.890;4.744;2022-10-16T05:28:36;2.97;;;1.40;;
8791;SDS011;4432;50.890;4.744;2022-10-16T05:31:08;1.40;;;1.30;;
8791;SDS011;4432;50.890;4.744;2022-10-16T05:33:35;1.17;;;1.13;;
8791;SDS011;4432;50.890;4.744;2022-10-16T05:36:01;4.50;;;1.30;;
8791;SDS011;4432;50.890;4.744;2022-10-16T05:38:28;3.33;;;1.60;;
8791;SDS011;4432;50.890;4.744;2022-10-16T05:40:54;2.53;;;1.47;;
8791;SDS011;4432;50.890;4.744;2022-10-16T05:43:21;2.00;;;1.80;;
8791;SDS011;4432;50.890;4.744;2022-10-16T05:46:05;1.60;;;1.50;;
8791;SDS011;4432;50.890;4.744;2022-10-16T05:48:32;2.00;;;1.50;;
8791;SDS011;4432;50.890;4.744;2022-10-16T05:53:23;2.97;;;1.53;;
8791;SDS011;4432;50.890;4.744;2022-10-16T05:55:54;1.50;;;1.40;;
8791;SDS011;4432;50.890;4.744;2022-10-16T05:58:21;1.60;;;1.37;;
8791;SDS011;4432;50.890;4.744;2022-10-16T06:00:54;1.60;;;1.50;;
8791;SDS011;4432;50.890;4.744;2022-10-16T06:03:22;4.83;;;1.63;;
8791;SDS011;4432;50.890;4.744;2022-10-16T06:05:48;2.13;;;1.40;;
8791;SDS011;4432;50.890;4.744;2022-10-16T06:08:14;1.77;;;1.37;;
8791;SDS011;4432;50.890;4.744;2022-10-16T06:10:40;3.17;;;1.90;;
8791;SDS011;4432;50.890;4.744;2022-10-16T06:13:06;1.67;;;1.57;;
8791;SDS011;4432;50.890;4.744;2022-10-16T06:15:32;1.50;;;1.40;;
8791;SDS011;4432;50.890;4.744;2022-10-16T06:17:57;1.33;;;1.23;;
8791;SDS011;4432;50.890;4.744;2022-10-16T06:20:23;1.43;;;1.33;;
8791;SDS011;4432;50.890;4.744;2022-10-16T06:22:49;1.97;;;1.53;;
8791;SDS011;4432;50.890;4.744;2022-10-16T06:25:14;4.43;;;1.40;;
8791;SDS011;4432;50.890;4.744;2022-10-16T06:27:40;2.53;;;1.60;;
8791;SDS011;4432;50.890;4.744;2022-10-16T06:30:06;5.33;;;1.40;;
8791;SDS011;4432;50.890;4.744;2022-10-16T06:32:32;5.67;;;1.80;;
8791;SDS011;4432;50.890;4.744;2022-10-16T06:34:58;2.67;;;1.70;;
8791;SDS011;4432;50.890;4.744;2022-10-16T06:37:24;2.70;;;2.07;;
8791;SDS011;4432;50.890;4.744;2022-10-16T06:39:50;4.83;;;1.80;;
8791;SDS011;4432;50.890;4.744;2022-10-16T06:42:17;3.40;;;1.63;;
8791;SDS011;4432;50.890;4.744;2022-10-16T06:44:43;2.77;;;1.50;;
8791;SDS011;4432;50.890;4.744;2022-10-16T06:47:09;1.53;;;1.40;;
8791;SDS011;4432;50.890;4.744;2022-10-16T06:49:35;2.50;;;1.70;;
8791;SDS011;4432;50.890;4.744;2022-10-16T06:52:01;2.30;;;1.80;;
8791;SDS011;4432;50.890;4.744;2022-10-16T06:54:27;2.00;;;1.63;;
8791;SDS011;4432;50.890;4.744;2022-10-16T06:56:53;5.93;;;1.63;;
8791;SDS011;4432;50.890;4.744;2022-10-16T06:59:20;1.87;;;1.53;;
8791;SDS011;4432;50.890;4.744;2022-10-16T07:01:46;2.10;;;1.70;;
8791;SDS011;4432;50.890;4.744;2022-10-16T07:04:12;2.67;;;1.90;;
8791;SDS011;4432;50.890;4.744;2022-10-16T07:06:38;4.57;;;1.70;;
8791;SDS011;4432;50.890;4.744;2022-10-16T07:09:05;2.93;;;1.90;;
8791;SDS011;4432;50.890;4.744;2022-10-16T07:11:34;10.80;;;1.73;;
8791;SDS011;4432;50.890;4.744;2022-10-16T07:14:01;5.60;;;1.33;;
8791;SDS011;4432;50.890;4.744;2022-10-16T07:16:28;3.53;;;1.43;;
8791;SDS011;4432;50.890;4.744;2022-10-16T07:18:59;1.03;;;1.03;;
8791;SDS011;4432;50.890;4.744;2022-10-16T07:21:33;1.50;;;1.23;;
8791;SDS011;4432;50.890;4.744;2022-10-16T07:24:00;2.67;;;1.30;;
8791;SDS011;4432;50.890;4.744;2022-10-16T07:26:27;4.63;;;1.53;;
8791;SDS011;4432;50.890;4.744;2022-10-16T07:28:57;2.13;;;1.10;;
8791;SDS011;4432;50.890;4.744;2022-10-16T07:31:23;6.50;;;1.40;;
8791;SDS011;4432;50.890;4.744;2022-10-16T07:33:50;1.60;;;1.40;;
8791;SDS011;4432;50.890;4.744;2022-10-16T07:36:17;3.93;;;1.50;;
8791;SDS011;4432;50.890;4.744;2022-10-16T07:38:44;1.73;;;1.40;;
8791;SDS011;4432;50.890;4.744;2022-10-16T07:41:11;2.00;;;1.40;;
8791;SDS011;4432;50.890;4.744;2022-10-16T07:43:38;5.33;;;1.50;;
8791;SDS011;4432;50.890;4.744;2022-10-16T07:46:04;1.77;;;1.40;;
8791;SDS011;4432;50.890;4.744;2022-10-16T07:48:31;3.90;;;1.00;;
8791;SDS011;4432;50.890;4.744;2022-10-16T07:51:05;2.30;;;1.20;;
8791;SDS011;4432;50.890;4.744;2022-10-16T07:53:32;2.37;;;1.33;;
8791;SDS011;4432;50.890;4.744;2022-10-16T07:56:02;1.43;;;1.33;;
8791;SDS011;4432;50.890;4.744;2022-10-16T07:58:29;1.20;;;1.20;;
8791;SDS011;4432;50.890;4.744;2022-10-16T08:00:56;4.70;;;1.40;;
8791;SDS011;4432;50.890;4.744;2022-10-16T08:03:22;1.73;;;1.30;;
8791;SDS011;4432;50.890;4.744;2022-10-16T08:05:48;5.67;;;1.50;;
8791;SDS011;4432;50.890;4.744;2022-10-16T08:08:15;1.40;;;1.30;;
8791;SDS011;4432;50.890;4.744;2022-10-16T08:10:42;1.20;;;1.10;;
8791;SDS011;4432;50.890;4.744;2022-10-16T08:13:09;2.30;;;1.30;;
8791;SDS011;4432;50.890;4.744;2022-10-16T08:15:35;2.03;;;1.17;;
8791;SDS011;4432;50.890;4.744;2022-10-16T08:18:02;1.17;;;1.07;;
8791;SDS011;4432;50.890;4.744;2022-10-16T08:20:29;1.33;;;1.30;;
8791;SDS011;4432;50.890;4.744;2022-10-16T08:22:56;1.47;;;1.30;;
8791;SDS011;4432;50.890;4.744;2022-10-16T08:25:22;0.90;;;0.90;;
8791;SDS011;4432;50.890;4.744;2022-10-16T08:27:49;1.57;;;1.20;;
8791;SDS011;4432;50.890;4.744;2022-10-16T08:30:16;1.43;;;1.20;;
8791;SDS011;4432;50.890;4.744;2022-10-16T08:32:43;1.17;;;1.10;;
8791;SDS011;4432;50.890;4.744;2022-10-16T08:35:09;1.27;;;1.13;;
8791;SDS011;4432;50.890;4.744;2022-10-16T08:37:36;2.00;;;1.20;;
8791;SDS011;4432;50.890;4.744;2022-10-16T08:40:03;2.07;;;1.17;;
8791;SDS011;4432;50.890;4.744;2022-10-16T08:51:00;1.37;;;1.13;;
8791;SDS011;4432;50.890;4.744;2022-10-16T08:53:31;4.50;;;1.20;;
8791;SDS011;4432;50.890;4.744;2022-10-16T08:56:11;2.27;;;0.90;;
8791;SDS011;4432;50.890;4.744;2022-10-16T08:58:37;2.40;;;1.20;;
8791;SDS011;4432;50.890;4.744;2022-10-16T09:01:03;2.70;;;1.33;;
8791;SDS011;4432;50.890;4.744;2022-10-16T09:17:22;0.90;;;0.90;;
8791;SDS011;4432;50.890;4.744;2022-10-16T09:20:49;1.30;;;1.03;;
8791;SDS011;4432;50.890;4.744;2022-10-16T09:23:12;0.97;;;0.90;;
8791;SDS011;4432;50.890;4.744;2022-10-16T09:25:41;1.47;;;1.00;;
8791;SDS011;4432;50.890;4.744;2022-10-16T09:28:09;1.70;;;0.93;;
8791;SDS011;4432;50.890;4.744;2022-10-16T09:30:35;0.87;;;0.80;;
8791;SDS011;4432;50.890;4.744;2022-10-16T09:33:04;1.23;;;0.90;;
8791;SDS011;4432;50.890;4.744;2022-10-16T09:35:40;1.63;;;1.10;;
8791;SDS011;4432;50.890;4.744;2022-10-16T09:38:20;1.90;;;1.20;;
8791;SDS011;4432;50.890;4.744;2022-10-16T09:41:00;2.07;;;1.23;;
8791;SDS011;4432;50.890;4.744;2022-10-16T09:43:39;2.93;;;1.20;;
8791;SDS011;4432;50.890;4.744;2022-10-16T09:49:00;0.90;;;0.90;;
8791;SDS011;4432;50.890;4.744;2022-10-16T09:54:01;2.33;;;1.00;;
8791;SDS011;4432;50.890;4.744;2022-10-16T09:56:34;1.60;;;0.90;;
8791;SDS011;4432;50.890;4.744;2022-10-16T09:59:08;2.47;;;0.90;;
8791;SDS011;4432;50.890;4.744;2022-10-16T10:04:14;3.70;;;1.00;;
8791;SDS011;4432;50.890;4.744;2022-10-16T10:06:41;2.47;;;0.63;;
8791;SDS011;4432;50.890;4.744;2022-10-16T10:09:23;1.73;;;1.20;;
8791;SDS011;4432;50.890;4.744;2022-10-16T10:11:56;1.57;;;0.80;;
8791;SDS011;4432;50.890;4.744;2022-10-16T10:14:24;1.40;;;0.80;;
8791;SDS011;4432;50.890;4.744;2022-10-16T10:19:50;1.67;;;1.10;;
8791;SDS011;4432;50.890;4.744;2022-10-16T10:30:42;1.90;;;0.80;;
8791;SDS011;4432;50.890;4.744;2022-10-16T10:33:20;3.10;;;0.83;;
8791;SDS011;4432;50.890;4.744;2022-10-16T10:36:12;2.07;;;0.87;;
8791;SDS011;4432;50.890;4.744;2022-10-16T10:44:16;1.07;;;0.77;;
8791;SDS011;4432;50.890;4.744;2022-10-16T10:58:35;2.07;;;0.70;;
8791;SDS011;4432;50.890;4.744;2022-10-16T11:01:12;3.20;;;0.90;;
8791;SDS011;4432;50.890;4.744;2022-10-16T11:06:26;1.73;;;0.73;;
8791;SDS011;4432;50.890;4.744;2022-10-16T11:09:10;2.57;;;0.90;;
8791;SDS011;4432;50.890;4.744;2022-10-16T11:17:41;0.97;;;0.87;;
8791;SDS011;4432;50.890;4.744;2022-10-16T11:20:24;1.33;;;0.77;;
8791;SDS011;4432;50.890;4.744;2022-10-16T11:22:55;4.67;;;0.80;;
8791;SDS011;4432;50.890;4.744;2022-10-16T11:25:29;1.17;;;0.90;;
8791;SDS011;4432;50.890;4.744;2022-10-16T11:27:59;0.70;;;0.70;;
8791;SDS011;4432;50.890;4.744;2022-10-16T11:30:29;2.33;;;0.80;;
8791;SDS011;4432;50.890;4.744;2022-10-16T11:38:28;1.60;;;0.57;;
8791;SDS011;4432;50.890;4.744;2022-10-16T11:40:56;1.40;;;0.80;;
8791;SDS011;4432;50.890;4.744;2022-10-16T11:43:34;0.60;;;0.60;;
8791;SDS011;4432;50.890;4.744;2022-10-16T11:46:15;0.70;;;0.70;;
8791;SDS011;4432;50.890;4.744;2022-10-16T11:48:50;1.40;;;0.80;;
8791;SDS011;4432;50.890;4.744;2022-10-16T11:56:54;2.37;;;0.80;;
8791;SDS011;4432;50.890;4.744;2022-10-16T12:02:07;7.63;;;1.07;;
8791;SDS011;4432;50.890;4.744;2022-10-16T12:04:43;1.47;;;0.80;;
8791;SDS011;4432;50.890;4.744;2022-10-16T12:07:15;0.60;;;0.60;;
8791;SDS011;4432;50.890;4.744;2022-10-16T12:09:45;1.73;;;0.90;;
8791;SDS011;4432;50.890;4.744;2022-10-16T12:12:27;1.63;;;0.97;;
8791;SDS011;4432;50.890;4.744;2022-10-16T12:17:51;0.90;;;0.90;;
8791;SDS011;4432;50.890;4.744;2022-10-16T12:23:04;4.17;;;0.87;;
8791;SDS011;4432;50.890;4.744;2022-10-16T12:25:35;3.03;;;0.67;;
8791;SDS011;4432;50.890;4.744;2022-10-16T12:28:05;1.23;;;1.00;;
8791;SDS011;4432;50.890;4.744;2022-10-16T12:30:40;1.23;;;1.00;;
8791;SDS011;4432;50.890;4.744;2022-10-16T12:33:22;0.87;;;0.87;;
8791;SDS011;4432;50.890;4.744;2022-10-16T12:35:48;1.10;;;0.80;;
8791;SDS011;4432;50.890;4.744;2022-10-16T12:38:19;2.77;;;0.77;;
8791;SDS011;4432;50.890;4.744;2022-10-16T12:41:07;0.80;;;0.70;;
8791;SDS011;4432;50.890;4.744;2022-10-16T12:48:33;2.87;;;0.90;;
8791;SDS011;4432;50.890;4.744;2022-10-16T12:54:02;1.23;;;0.90;;
8791;SDS011;4432;50.890;4.744;2022-10-16T13:01:57;0.63;;;0.63;;
8791;SDS011;4432;50.890;4.744;2022-10-16T13:21:44;0.70;;;0.70;;
8791;SDS011;4432;50.890;4.744;2022-10-16T13:24:42;1.10;;;1.00;;
8791;SDS011;4432;50.890;4.744;2022-10-16T13:27:40;5.17;;;0.90;;
8791;SDS011;4432;50.890;4.744;2022-10-16T13:30:19;1.23;;;0.83;;
8791;SDS011;4432;50.890;4.744;2022-10-16T13:32:48;0.97;;;0.80;;
8791;SDS011;4432;50.890;4.744;2022-10-16T13:35:20;5.00;;;0.90;;
8791;SDS011;4432;50.890;4.744;2022-10-16T13:37:48;0.83;;;0.70;;
8791;SDS011;4432;50.890;4.744;2022-10-16T13:40:21;1.70;;;0.90;;
8791;SDS011;4432;50.890;4.744;2022-10-16T13:42:49;1.43;;;0.80;;
8791;SDS011;4432;50.890;4.744;2022-10-16T13:45:25;3.93;;;1.03;;
8791;SDS011;4432;50.890;4.744;2022-10-16T13:48:01;1.77;;;1.03;;
8791;SDS011;4432;50.890;4.744;2022-10-16T13:50:28;1.60;;;0.93;;
8791;SDS011;4432;50.890;4.744;2022-10-16T13:53:04;1.97;;;1.00;;
8791;SDS011;4432;50.890;4.744;2022-10-16T13:55:37;2.10;;;0.70;;
8791;SDS011;4432;50.890;4.744;2022-10-16T13:58:13;0.90;;;0.80;;
8791;SDS011;4432;50.890;4.744;2022-10-16T14:00:40;0.83;;;0.73;;
8791;SDS011;4432;50.890;4.744;2022-10-16T14:03:18;3.53;;;1.00;;
8791;SDS011;4432;50.890;4.744;2022-10-16T14:05:49;3.67;;;1.20;;
8791;SDS011;4432;50.890;4.744;2022-10-16T14:08:17;1.03;;;0.87;;
8791;SDS011;4432;50.890;4.744;2022-10-16T14:10:46;0.63;;;0.60;;
8791;SDS011;4432;50.890;4.744;2022-10-16T14:13:15;2.30;;;1.00;;
8791;SDS011;4432;50.890;4.744;2022-10-16T14:15:46;1.00;;;0.90;;
8791;SDS011;4432;50.890;4.744;2022-10-16T14:18:21;1.90;;;1.10;;
8791;SDS011;4432;50.890;4.744;2022-10-16T14:20:49;1.50;;;0.83;;
8791;SDS011;4432;50.890;4.744;2022-10-16T14:23:20;1.60;;;0.80;;
8791;SDS011;4432;50.890;4.744;2022-10-16T14:28:34;2.73;;;0.90;;
8791;SDS011;4432;50.890;4.744;2022-10-16T14:31:01;0.73;;;0.73;;
8791;SDS011;4432;50.890;4.744;2022-10-16T14:33:42;0.80;;;0.70;;
8791;SDS011;4432;50.890;4.744;2022-10-16T14:36:14;3.23;;;0.83;;
8791;SDS011;4432;50.890;4.744;2022-10-16T14:41:15;1.10;;;1.00;;
8791;SDS011;4432;50.890;4.744;2022-10-16T14:43:49;1.27;;;0.90;;
8791;SDS011;4432;50.890;4.744;2022-10-16T14:46:18;0.70;;;0.70;;
8791;SDS011;4432;50.890;4.744;2022-10-16T14:48:47;2.97;;;1.00;;
8791;SDS011;4432;50.890;4.744;2022-10-16T14:51:18;0.90;;;0.90;;
8791;SDS011;4432;50.890;4.744;2022-10-16T14:53:45;2.37;;;0.97;;
8791;SDS011;4432;50.890;4.744;2022-10-16T14:58:40;0.83;;;0.80;;
8791;SDS011;4432;50.890;4.744;2022-10-16T15:01:06;0.77;;;0.70;;
8791;SDS011;4432;50.890;4.744;2022-10-16T15:03:35;0.60;;;0.60;;
8791;SDS011;4432;50.890;4.744;2022-10-16T15:06:01;2.20;;;0.70;;
8791;SDS011;4432;50.890;4.744;2022-10-16T15:08:27;2.43;;;0.80;;
8791;SDS011;4432;50.890;4.744;2022-10-16T15:10:53;1.47;;;0.90;;
8791;SDS011;4432;50.890;4.744;2022-10-16T15:13:19;0.90;;;0.90;;
8791;SDS011;4432;50.890;4.744;2022-10-16T15:15:45;0.67;;;0.67;;
8791;SDS011;4432;50.890;4.744;2022-10-16T15:18:12;1.57;;;1.00;;
8791;SDS011;4432;50.890;4.744;2022-10-16T15:20:40;3.00;;;0.90;;
8791;SDS011;4432;50.890;4.744;2022-10-16T15:23:10;1.07;;;0.90;;
8791;SDS011;4432;50.890;4.744;2022-10-16T15:25:46;0.70;;;0.70;;
8791;SDS011;4432;50.890;4.744;2022-10-16T15:28:19;0.87;;;0.83;;
8791;SDS011;4432;50.890;4.744;2022-10-16T15:30:45;0.63;;;0.63;;
8791;SDS011;4432;50.890;4.744;2022-10-16T15:33:13;0.80;;;0.80;;
8791;SDS011;4432;50.890;4.744;2022-10-16T15:35:40;0.80;;;0.80;;
8791;SDS011;4432;50.890;4.744;2022-10-16T15:38:07;1.97;;;1.00;;
8791;SDS011;4432;50.890;4.744;2022-10-16T15:40:37;0.67;;;0.67;;
8791;SDS011;4432;50.890;4.744;2022-10-16T15:43:02;0.63;;;0.63;;
8791;SDS011;4432;50.890;4.744;2022-10-16T15:45:28;4.10;;;0.87;;
8791;SDS011;4432;50.890;4.744;2022-10-16T15:47:54;1.13;;;1.03;;
8791;SDS011;4432;50.890;4.744;2022-10-16T15:50:19;3.23;;;1.33;;
8791;SDS011;4432;50.890;4.744;2022-10-16T15:52:45;2.50;;;1.17;;
8791;SDS011;4432;50.890;4.744;2022-10-16T15:55:11;1.23;;;1.10;;
8791;SDS011;4432;50.890;4.744;2022-10-16T15:57:38;1.90;;;1.70;;
8791;SDS011;4432;50.890;4.744;2022-10-16T16:00:07;1.63;;;1.50;;
8791;SDS011;4432;50.890;4.744;2022-10-16T16:02:35;1.63;;;1.53;;
8791;SDS011;4432;50.890;4.744;2022-10-16T16:05:00;1.80;;;1.30;;
8791;SDS011;4432;50.890;4.744;2022-10-16T16:07:26;1.13;;;1.07;;
8791;SDS011;4432;50.890;4.744;2022-10-16T16:09:52;2.30;;;1.50;;
8791;SDS011;4432;50.890;4.744;2022-10-16T16:12:18;2.23;;;1.30;;
8791;SDS011;4432;50.890;4.744;2022-10-16T16:14:44;1.70;;;1.40;;
8791;SDS011;4432;50.890;4.744;2022-10-16T16:17:13;1.43;;;1.33;;
8791;SDS011;4432;50.890;4.744;2022-10-16T16:19:40;2.07;;;1.57;;
8791;SDS011;4432;50.890;4.744;2022-10-16T16:22:06;2.87;;;1.73;;
8791;SDS011;4432;50.890;4.744;2022-10-16T16:24:32;4.47;;;2.07;;
8791;SDS011;4432;50.890;4.744;2022-10-16T16:26:57;5.60;;;1.63;;
8791;SDS011;4432;50.890;4.744;2022-10-16T16:29:23;4.63;;;1.80;;
8791;SDS011;4432;50.890;4.744;2022-10-16T16:31:49;1.87;;;1.30;;
8791;SDS011;4432;50.890;4.744;2022-10-16T16:34:14;3.03;;;1.70;;
8791;SDS011;4432;50.890;4.744;2022-10-16T16:36:40;3.17;;;1.57;;
8791;SDS011;4432;50.890;4.744;2022-10-16T16:39:06;2.43;;;1.53;;
8791;SDS011;4432;50.890;4.744;2022-10-16T16:41:32;1.60;;;1.50;;
8791;SDS011;4432;50.890;4.744;2022-10-16T16:44:03;1.27;;;1.23;;
8791;SDS011;4432;50.890;4.744;2022-10-16T16:46:30;1.23;;;0.90;;
8791;SDS011;4432;50.890;4.744;2022-10-16T16:48:58;9.00;;;1.47;;
8791;SDS011;4432;50.890;4.744;2022-10-16T16:51:24;1.23;;;1.10;;
8791;SDS011;4432;50.890;4.744;2022-10-16T16:53:50;4.30;;;1.20;;
8791;SDS011;4432;50.890;4.744;2022-10-16T16:56:17;1.30;;;1.20;;
8791;SDS011;4432;50.890;4.744;2022-10-16T16:58:44;2.30;;;1.47;;
8791;SDS011;4432;50.890;4.744;2022-10-16T17:01:12;1.47;;;1.37;;
8791;SDS011;4432;50.890;4.744;2022-10-16T17:03:38;1.23;;;1.13;;
8791;SDS011;4432;50.890;4.744;2022-10-16T17:06:07;2.83;;;1.47;;
8791;SDS011;4432;50.890;4.744;2022-10-16T17:08:34;2.00;;;1.40;;
8791;SDS011;4432;50.890;4.744;2022-10-16T17:11:00;1.37;;;1.27;;
8791;SDS011;4432;50.890;4.744;2022-10-16T17:13:27;1.50;;;1.40;;
8791;SDS011;4432;50.890;4.744;2022-10-16T17:15:55;3.33;;;2.47;;
8791;SDS011;4432;50.890;4.744;2022-10-16T17:18:22;5.97;;;2.27;;
8791;SDS011;4432;50.890;4.744;2022-10-16T17:20:49;2.23;;;1.53;;
8791;SDS011;4432;50.890;4.744;2022-10-16T17:23:16;2.27;;;1.87;;
8791;SDS011;4432;50.890;4.744;2022-10-16T17:25:43;3.53;;;2.20;;
8791;SDS011;4432;50.890;4.744;2022-10-16T17:28:09;5.27;;;2.30;;
8791;SDS011;4432;50.890;4.744;2022-10-16T17:30:36;4.97;;;1.83;;
8791;SDS011;4432;50.890;4.744;2022-10-16T17:33:02;4.27;;;2.13;;
8791;SDS011;4432;50.890;4.744;2022-10-16T17:35:35;4.23;;;2.47;;
8791;SDS011;4432;50.890;4.744;2022-10-16T17:38:05;4.83;;;2.00;;
8791;SDS011;4432;50.890;4.744;2022-10-16T17:40:30;4.10;;;2.97;;
8791;SDS011;4432;50.890;4.744;2022-10-16T17:42:56;4.83;;;2.00;;
8791;SDS011;4432;50.890;4.744;2022-10-16T17:45:22;2.53;;;1.80;;
8791;SDS011;4432;50.890;4.744;2022-10-16T17:47:48;3.03;;;1.80;;
8791;SDS011;4432;50.890;4.744;2022-10-16T17:50:14;3.07;;;2.20;;